createdAt,value
2023-02-16T00:01:54.772Z,47.37
2023-02-16T00:04:22.535Z,47.17
2023-02-16T00:06:49.617Z,46.70
2023-02-16T00:09:16.734Z,44.37
2023-02-16T00:12:02.546Z,47.50
2023-02-16T00:14:29.046Z,46.57
2023-02-16T00:16:57.250Z,46.77
2023-02-16T00:19:28.010Z,44.90
2023-02-16T00:21:56.750Z,46.67
2023-02-16T00:24:24.682Z,47.00
2023-02-16T00:26:51.225Z,45.83
2023-02-16T00:29:21.190Z,48.03
2023-02-16T00:31:48.006Z,47.77
2023-02-16T00:34:26.850Z,47.17
2023-02-16T00:36:53.485Z,44.67
2023-02-16T00:39:19.936Z,47.30
2023-02-16T00:41:52.367Z,47.67
2023-02-16T00:44:29.993Z,47.23
2023-02-16T00:46:56.843Z,46.83
2023-02-16T00:49:23.347Z,47.70
2023-02-16T00:51:50.426Z,49.67
2023-02-16T00:54:16.909Z,48.37
2023-02-16T00:56:43.579Z,50.70
2023-02-16T00:59:16.230Z,48.27
2023-02-16T01:01:42.957Z,49.47
2023-02-16T01:04:13.853Z,51.10
2023-02-16T01:06:58.966Z,49.57
2023-02-16T01:09:44.018Z,48.77
2023-02-16T01:12:15.317Z,49.77
2023-02-16T01:14:52.397Z,47.97
2023-02-16T01:17:18.937Z,47.93
2023-02-16T01:19:45.401Z,49.37
2023-02-16T01:22:11.875Z,50.87
2023-02-16T01:24:38.463Z,52.40
2023-02-16T01:27:04.916Z,50.83
2023-02-16T01:29:31.365Z,53.20
2023-02-16T01:31:57.970Z,51.97
2023-02-16T01:34:25.482Z,51.97
2023-02-16T01:36:52.084Z,48.67
2023-02-16T01:39:20.680Z,53.43
2023-02-16T01:41:56.550Z,52.27
2023-02-16T01:44:47.007Z,48.40
2023-02-16T01:47:52.050Z,53.57
2023-02-16T01:50:27.274Z,49.27
2023-02-16T01:53:19.894Z,51.97
2023-02-16T01:55:48.205Z,51.27
2023-02-16T01:58:38.662Z,50.93
2023-02-16T02:01:05.352Z,49.07
2023-02-16T02:03:53.174Z,48.80
2023-02-16T02:06:31.149Z,50.10
2023-02-16T02:09:03.920Z,53.33
2023-02-16T02:11:34.616Z,50.53
2023-02-16T02:14:20.094Z,53.10
2023-02-16T02:16:59.650Z,52.87
2023-02-16T02:19:26.263Z,53.13
2023-02-16T02:22:49.930Z,54.93
2023-02-16T02:25:47.964Z,52.93
2023-02-16T02:28:25.543Z,56.70
2023-02-16T02:31:23.083Z,51.90
2023-02-16T02:34:01.901Z,50.30
2023-02-16T02:36:40.633Z,53.70
2023-02-16T02:39:33.883Z,56.30
2023-02-16T02:42:06.275Z,60.50
2023-02-16T02:44:40.922Z,55.37
2023-02-16T02:47:07.788Z,54.90
2023-02-16T02:49:34.265Z,54.73
2023-02-16T02:52:00.945Z,62.43
2023-02-16T02:54:52.621Z,59.40
2023-02-16T02:57:43.212Z,63.40
2023-02-16T03:00:28.489Z,63.43
2023-02-16T03:03:01.664Z,57.13
2023-02-16T03:05:29.594Z,59.57
2023-02-16T03:08:14.004Z,61.67
2023-02-16T03:11:09.237Z,65.30
2023-02-16T03:14:06.025Z,64.23
2023-02-16T03:16:38.483Z,62.83
2023-02-16T03:19:25.575Z,66.57
2023-02-16T03:22:10.773Z,62.53
2023-02-16T03:24:55.842Z,61.47
2023-02-16T03:27:44.332Z,64.93
2023-02-16T03:30:11.954Z,62.83
2023-02-16T03:32:39.536Z,59.87
2023-02-16T03:35:06.540Z,66.40
2023-02-16T03:37:33.437Z,65.70
2023-02-16T03:40:18.678Z,61.90
2023-02-16T03:42:50.125Z,64.17
2023-02-16T03:45:17.473Z,64.73
2023-02-16T03:47:43.932Z,64.03
2023-02-16T03:50:10.491Z,62.30
2023-02-16T03:52:36.924Z,62.73
2023-02-16T03:55:03.520Z,67.80
2023-02-16T03:57:29.956Z,62.67
2023-02-16T03:59:59.183Z,62.43
2023-02-16T04:02:27.705Z,67.97
2023-02-16T04:04:54.302Z,64.77
2023-02-16T04:07:20.835Z,65.63
2023-02-16T04:09:47.362Z,68.37
2023-02-16T04:12:32.307Z,66.10
2023-02-16T04:14:58.821Z,65.50
2023-02-16T04:17:25.271Z,62.07
2023-02-16T04:19:51.728Z,65.63
2023-02-16T04:22:18.215Z,63.10
2023-02-16T04:24:44.688Z,69.00
2023-02-16T04:27:11.214Z,69.50
2023-02-16T04:29:37.637Z,63.03
2023-02-16T04:32:04.886Z,64.53
2023-02-16T04:34:31.421Z,65.63
2023-02-16T04:36:57.874Z,60.53
2023-02-16T04:39:24.336Z,67.63
2023-02-16T04:41:50.808Z,65.00
2023-02-16T04:44:17.336Z,62.40
2023-02-16T04:46:43.861Z,63.00
2023-02-16T04:49:10.301Z,71.33
2023-02-16T04:51:36.761Z,61.53
2023-02-16T04:54:03.237Z,69.03
2023-02-16T04:56:29.777Z,69.07
2023-02-16T04:58:56.578Z,68.93
2023-02-16T05:01:24.851Z,67.90
2023-02-16T05:03:51.415Z,68.13
2023-02-16T05:06:18.446Z,67.40
2023-02-16T05:08:45.371Z,67.17
2023-02-16T05:11:30.523Z,69.17
2023-02-16T05:14:16.758Z,65.43
2023-02-16T05:16:43.567Z,70.17
2023-02-16T05:19:10.029Z,64.73
2023-02-16T05:21:36.584Z,73.30
2023-02-16T05:24:09.289Z,62.83
2023-02-16T05:26:37.035Z,64.83
2023-02-16T05:29:04.083Z,62.97
2023-02-16T05:31:38.007Z,61.73
2023-02-16T05:34:04.658Z,63.67
2023-02-16T05:36:31.282Z,65.10
2023-02-16T05:38:57.752Z,64.40
2023-02-16T05:41:24.319Z,68.60
2023-02-16T05:43:52.304Z,69.03
2023-02-16T05:46:19.830Z,64.37
2023-02-16T05:48:46.435Z,66.07
2023-02-16T05:51:13.496Z,63.47
2023-02-16T05:53:40.218Z,63.30
2023-02-16T05:56:07.543Z,63.63
2023-02-16T05:58:34.101Z,66.00
2023-02-16T06:01:01.028Z,65.13
2023-02-16T06:03:27.893Z,66.40
2023-02-16T06:06:00.617Z,63.43
2023-02-16T06:08:27.824Z,64.33
2023-02-16T06:10:54.689Z,64.07
2023-02-16T06:13:22.007Z,62.73
2023-02-16T06:15:52.280Z,62.20
2023-02-16T06:18:18.878Z,62.80
2023-02-16T06:20:45.694Z,65.40
2023-02-16T06:23:13.349Z,64.47
2023-02-16T06:25:44.387Z,63.87
2023-02-16T06:28:11.350Z,66.60
2023-02-16T06:30:38.011Z,60.70
2023-02-16T06:33:04.602Z,60.63
2023-02-16T06:35:31.404Z,59.50
2023-02-16T06:37:59.242Z,61.53
2023-02-16T06:40:26.064Z,64.67
2023-02-16T06:42:52.565Z,60.93
2023-02-16T06:45:19.382Z,64.20
2023-02-16T06:47:45.921Z,63.47
2023-02-16T06:50:14.493Z,64.27
2023-02-16T06:52:41.137Z,63.40
2023-02-16T06:55:08.208Z,61.83
2023-02-16T06:57:34.660Z,62.13
2023-02-16T07:00:01.114Z,67.67
2023-02-16T07:02:27.545Z,65.07
2023-02-16T07:04:54.621Z,62.97
2023-02-16T07:07:21.176Z,62.07
2023-02-16T07:09:47.801Z,65.93
2023-02-16T07:12:14.337Z,63.87
2023-02-16T07:14:42.508Z,61.93
2023-02-16T07:17:10.312Z,60.20
2023-02-16T07:19:36.772Z,63.23
2023-02-16T07:22:05.183Z,62.80
2023-02-16T07:24:31.657Z,61.47
2023-02-16T07:26:58.097Z,62.73
2023-02-16T07:29:24.557Z,64.33
2023-02-16T07:31:51.539Z,58.60
2023-02-16T07:34:20.181Z,62.47
2023-02-16T07:36:47.338Z,63.63
2023-02-16T07:39:13.790Z,59.10
2023-02-16T07:41:40.245Z,59.67
2023-02-16T07:44:06.729Z,63.47
2023-02-16T07:46:33.522Z,62.20
2023-02-16T07:49:00.357Z,61.47
2023-02-16T07:51:28.975Z,57.53
2023-02-16T07:53:55.467Z,57.30
2023-02-16T07:56:27.071Z,56.23
2023-02-16T07:58:55.326Z,57.43
2023-02-16T08:01:22.451Z,58.53
2023-02-16T08:03:49.365Z,54.60
2023-02-16T08:06:16.300Z,53.00
2023-02-16T08:08:42.853Z,51.97
2023-02-16T08:11:19.305Z,53.47
2023-02-16T08:13:46.125Z,55.23
2023-02-16T08:16:18.841Z,52.67
2023-02-16T08:18:45.534Z,52.93
2023-02-16T08:21:18.104Z,52.87
2023-02-16T08:23:56.348Z,49.90
2023-02-16T08:26:24.417Z,53.53
2023-02-16T08:28:51.720Z,50.37
2023-02-16T08:31:23.347Z,49.20
2023-02-16T08:33:50.995Z,50.03
2023-02-16T08:36:19.578Z,48.67
2023-02-16T08:38:50.121Z,48.33
2023-02-16T08:41:18.079Z,48.33
2023-02-16T08:43:44.592Z,50.27
2023-02-16T08:46:11.359Z,49.50
2023-02-16T08:48:39.884Z,47.17
2023-02-16T08:51:07.122Z,44.63
2023-02-16T08:53:35.061Z,47.30
2023-02-16T08:56:03.948Z,47.20
2023-02-16T08:58:31.403Z,46.80
2023-02-16T09:00:58.036Z,46.17
2023-02-16T09:03:25.028Z,45.47
2023-02-16T09:05:55.400Z,45.37
2023-02-16T09:08:21.897Z,47.07
2023-02-16T09:10:48.401Z,45.40
2023-02-16T09:13:15.088Z,44.33
2023-02-16T09:15:43.134Z,44.87
2023-02-16T09:18:14.129Z,46.07
2023-02-16T09:20:44.301Z,45.00
2023-02-16T09:23:12.817Z,44.43
2023-02-16T09:25:40.147Z,46.40
2023-02-16T09:28:06.898Z,43.70
2023-02-16T09:30:34.734Z,44.90
2023-02-16T09:33:01.437Z,45.90
2023-02-16T09:35:27.964Z,45.47
2023-02-16T09:37:54.415Z,44.17
2023-02-16T09:40:21.359Z,47.20
2023-02-16T09:42:58.439Z,47.53
2023-02-16T09:45:26.950Z,48.63
2023-02-16T09:47:55.189Z,45.23
2023-02-16T09:50:52.224Z,47.03
2023-02-16T09:53:40.356Z,45.60
2023-02-16T09:56:25.198Z,45.43
2023-02-16T09:58:57.718Z,48.27
2023-02-16T10:01:34.969Z,49.63
2023-02-16T10:04:20.222Z,49.47
2023-02-16T10:06:58.451Z,46.83
2023-02-16T10:09:27.831Z,47.73
2023-02-16T10:12:12.966Z,48.60
2023-02-16T10:14:56.638Z,46.73
2023-02-16T10:17:37.866Z,46.40
2023-02-16T10:20:16.935Z,48.33
2023-02-16T10:22:53.285Z,46.87
2023-02-16T10:25:37.333Z,47.70
2023-02-16T10:28:22.659Z,49.83
2023-02-16T10:30:55.070Z,47.73
2023-02-16T10:33:33.887Z,48.43
2023-02-16T10:36:04.296Z,49.93
2023-02-16T10:38:40.499Z,48.83
2023-02-16T10:41:28.916Z,48.23
2023-02-16T10:44:01.610Z,48.90
2023-02-16T10:46:38.313Z,48.87
2023-02-16T10:49:04.952Z,48.93
2023-02-16T10:51:34.096Z,47.17
2023-02-16T10:54:21.971Z,47.97
2023-02-16T10:56:59.528Z,46.60
2023-02-16T10:59:44.705Z,46.80
2023-02-16T11:02:21.822Z,46.67
2023-02-16T11:04:52.479Z,48.60
2023-02-16T11:07:22.161Z,47.17
2023-02-16T11:09:53.853Z,48.83
2023-02-16T11:12:35.102Z,46.57
2023-02-16T11:15:13.979Z,45.87
2023-02-16T11:17:53.138Z,46.50
2023-02-16T11:20:51.728Z,47.87
2023-02-16T11:23:27.734Z,48.37
2023-02-16T11:26:13.104Z,46.57
2023-02-16T11:28:42.870Z,48.70
2023-02-16T11:31:21.660Z,50.70
2023-02-16T11:34:05.856Z,49.10
2023-02-16T11:36:38.330Z,48.43
2023-02-16T11:39:14.200Z,47.73
2023-02-16T11:41:56.204Z,49.60
2023-02-16T11:44:32.295Z,47.63
2023-02-16T11:47:01.546Z,47.87
2023-02-16T11:49:42.115Z,46.40
2023-02-16T11:52:37.163Z,48.57
2023-02-16T11:55:04.861Z,48.50
2023-02-16T11:57:35.912Z,48.90
2023-02-16T12:00:14.667Z,48.83
2023-02-16T12:03:09.981Z,48.37
2023-02-16T12:05:43.738Z,47.67
2023-02-16T12:08:25.455Z,48.50
2023-02-16T12:11:06.881Z,48.43
2023-02-16T12:13:43.544Z,48.63
2023-02-16T12:16:48.824Z,48.80
2023-02-16T12:19:44.843Z,46.13
2023-02-16T12:22:14.298Z,47.50
2023-02-16T12:24:57.065Z,48.07
2023-02-16T12:27:40.625Z,47.23
2023-02-16T12:30:28.356Z,47.53
2023-02-16T12:33:13.549Z,46.97
2023-02-16T12:35:51.427Z,46.40
2023-02-16T12:38:55.609Z,48.53
2023-02-16T12:41:53.009Z,47.63
2023-02-16T12:44:29.810Z,47.87
2023-02-16T12:47:08.408Z,50.47
2023-02-16T12:49:43.986Z,49.27
2023-02-16T12:52:18.890Z,46.20
2023-02-16T12:54:49.664Z,47.50
2023-02-16T12:57:20.635Z,48.93
2023-02-16T12:59:55.460Z,49.03
2023-02-16T13:02:43.121Z,47.07
2023-02-16T13:05:21.313Z,49.17
2023-02-16T13:07:52.501Z,51.10
2023-02-16T13:10:39.266Z,52.60
2023-02-16T13:13:12.457Z,50.53
2023-02-16T13:16:17.440Z,52.30
2023-02-16T13:18:56.308Z,51.13
2023-02-16T13:21:51.579Z,52.93
2023-02-16T13:24:40.281Z,52.53
2023-02-16T13:27:22.152Z,49.10
2023-02-16T13:29:54.689Z,49.47
2023-02-16T13:32:46.657Z,52.63
2023-02-16T13:35:25.813Z,50.10
2023-02-16T13:38:10.999Z,49.17
2023-02-16T13:40:51.369Z,49.77
2023-02-16T13:43:26.763Z,50.40
2023-02-16T13:45:54.602Z,49.10
2023-02-16T13:48:29.255Z,49.83
2023-02-16T13:51:05.262Z,48.40
2023-02-16T13:53:40.101Z,49.73
2023-02-16T13:56:29.931Z,47.97
2023-02-16T13:59:19.658Z,48.03
2023-02-16T14:01:47.571Z,47.40
2023-02-16T14:04:23.198Z,49.07
2023-02-16T14:07:13.419Z,47.80
2023-02-16T14:09:39.919Z,48.93
2023-02-16T14:12:09.520Z,47.37
2023-02-16T14:14:42.054Z,48.83
2023-02-16T14:17:14.867Z,50.03
2023-02-16T14:20:00.693Z,48.97
2023-02-16T14:22:45.682Z,49.73
2023-02-16T14:25:24.476Z,50.63
2023-02-16T14:27:51.596Z,59.33
2023-02-16T14:30:27.915Z,56.57
2023-02-16T14:33:27.730Z,50.87
2023-02-16T14:36:00.471Z,50.03
2023-02-16T14:38:40.211Z,51.20
2023-02-16T14:41:13.879Z,50.80
2023-02-16T14:43:45.769Z,52.70
2023-02-16T14:46:18.271Z,50.50
2023-02-16T14:49:22.486Z,52.20
2023-02-16T14:51:57.944Z,52.40
2023-02-16T14:54:43.245Z,51.00
2023-02-16T14:57:24.368Z,52.70
2023-02-16T15:00:02.165Z,50.93
2023-02-16T15:02:30.204Z,54.93
2023-02-16T15:04:57.295Z,53.73
2023-02-16T15:07:25.648Z,53.33
2023-02-16T15:09:57.371Z,52.57
2023-02-16T15:12:29.992Z,52.87
2023-02-16T15:15:07.557Z,53.13
2023-02-16T15:17:38.082Z,55.30
2023-02-16T15:20:21.723Z,53.37
2023-02-16T15:22:57.017Z,52.50
2023-02-16T15:25:27.771Z,55.50
2023-02-16T15:28:14.855Z,56.33
2023-02-16T15:30:53.179Z,56.90
2023-02-16T15:33:23.873Z,59.33
2023-02-16T15:35:57.216Z,58.13
2023-02-16T15:38:34.752Z,56.97
2023-02-16T15:41:04.489Z,63.10
2023-02-16T15:43:43.805Z,61.53
2023-02-16T15:46:23.907Z,57.40
2023-02-16T15:48:50.945Z,61.47
2023-02-16T15:51:33.386Z,64.97
2023-02-16T15:54:01.191Z,62.37
2023-02-16T15:56:45.534Z,61.20
2023-02-16T15:59:35.346Z,58.67
2023-02-16T16:02:21.870Z,60.17
2023-02-16T16:05:01.094Z,60.77
2023-02-16T16:07:32.128Z,59.73
2023-02-16T16:10:00.120Z,61.43
2023-02-16T16:12:27.126Z,62.23
2023-02-16T16:14:56.391Z,62.60
2023-02-16T16:17:29.776Z,63.37
2023-02-16T16:19:58.165Z,64.03
2023-02-16T16:22:39.724Z,60.53
2023-02-16T16:25:30.402Z,63.43
2023-02-16T16:27:57.253Z,64.17
2023-02-16T16:30:23.728Z,64.87
2023-02-16T16:33:07.711Z,65.70
2023-02-16T16:35:46.441Z,62.70
2023-02-16T16:38:28.234Z,62.00
2023-02-16T16:40:57.859Z,63.80
2023-02-16T16:43:32.925Z,63.37
2023-02-16T16:46:19.266Z,62.90
2023-02-16T16:48:47.659Z,65.07
2023-02-16T16:51:36.487Z,63.50
2023-02-16T16:54:05.578Z,63.93
2023-02-16T16:56:36.830Z,65.23
2023-02-16T16:59:04.220Z,62.60
2023-02-16T17:01:31.105Z,64.53
2023-02-16T17:03:58.177Z,64.67
2023-02-16T17:06:25.320Z,67.50
2023-02-16T17:08:51.969Z,68.27
2023-02-16T17:11:34.241Z,66.03
2023-02-16T17:14:08.492Z,65.90
2023-02-16T17:16:38.520Z,66.97
2023-02-16T17:19:05.064Z,67.60
2023-02-16T17:21:31.527Z,67.03
2023-02-16T17:23:57.972Z,70.53
2023-02-16T17:26:24.529Z,63.83
2023-02-16T17:28:51.145Z,69.03
2023-02-16T17:31:17.718Z,67.77
2023-02-16T17:33:44.875Z,67.37
2023-02-16T17:36:13.871Z,67.30
2023-02-16T17:38:40.404Z,68.63
2023-02-16T17:41:06.926Z,66.70
2023-02-16T17:43:33.377Z,66.10
2023-02-16T17:46:04.700Z,67.93
2023-02-16T17:48:31.443Z,66.60
2023-02-16T17:50:58.280Z,67.80
2023-02-16T17:53:25.903Z,70.77
2023-02-16T17:55:54.572Z,68.13
2023-02-16T17:58:22.332Z,70.50
2023-02-16T18:00:48.972Z,69.40
2023-02-16T18:03:15.601Z,68.43
2023-02-16T18:05:42.099Z,71.43
2023-02-16T18:08:08.662Z,69.73
2023-02-16T18:10:46.549Z,68.73
2023-02-16T18:13:13.815Z,71.50
2023-02-16T18:15:42.767Z,70.63
2023-02-16T18:18:09.362Z,67.07
2023-02-16T18:20:36.023Z,68.17
2023-02-16T18:23:02.691Z,66.80
2023-02-16T18:25:30.880Z,68.27
2023-02-16T18:27:57.651Z,67.67
2023-02-16T18:30:24.482Z,71.20
2023-02-16T18:32:51.932Z,68.03
2023-02-16T18:35:19.878Z,68.70
2023-02-16T18:37:47.521Z,68.63
2023-02-16T18:40:17.761Z,67.27
2023-02-16T18:42:45.530Z,73.03
2023-02-16T18:45:12.880Z,69.13
2023-02-16T18:47:42.884Z,73.70
2023-02-16T18:50:09.965Z,69.60
2023-02-16T18:52:37.121Z,76.00
2023-02-16T18:55:03.963Z,71.07
2023-02-16T18:57:33.715Z,79.20
2023-02-16T19:00:01.126Z,71.80
2023-02-16T19:02:28.144Z,66.13
2023-02-16T19:04:58.787Z,65.63
2023-02-16T19:07:33.226Z,65.83
2023-02-16T19:10:03.672Z,66.27
2023-02-16T19:12:33.876Z,66.90
2023-02-16T19:15:00.647Z,64.20
2023-02-16T19:17:30.528Z,65.03
2023-02-16T19:19:57.521Z,65.13
2023-02-16T19:22:24.822Z,65.20
2023-02-16T19:24:54.116Z,65.47
2023-02-16T19:27:21.061Z,62.63
2023-02-16T19:29:51.062Z,64.20
2023-02-16T19:32:21.073Z,62.73
2023-02-16T19:34:54.145Z,61.57
2023-02-16T19:37:24.372Z,62.57
2023-02-16T19:39:54.270Z,60.80
2023-02-16T19:42:21.991Z,60.90
2023-02-16T19:45:00.242Z,66.87
2023-02-16T19:47:27.520Z,58.83
2023-02-16T19:49:54.909Z,58.33
2023-02-16T19:52:27.776Z,62.80
2023-02-16T19:54:55.402Z,59.73
2023-02-16T19:57:21.913Z,59.87
2023-02-16T19:59:48.347Z,58.30
2023-02-16T20:02:15.594Z,59.80
2023-02-16T20:04:42.953Z,56.90
2023-02-16T20:07:09.835Z,56.47
2023-02-16T20:09:37.361Z,57.40
2023-02-16T20:12:04.733Z,58.47
2023-02-16T20:14:31.306Z,56.03
2023-02-16T20:16:57.742Z,54.63
2023-02-16T20:19:24.241Z,54.47
2023-02-16T20:21:51.348Z,56.03
2023-02-16T20:24:18.819Z,54.07
2023-02-16T20:26:47.134Z,53.53
2023-02-16T20:29:17.917Z,51.60
2023-02-16T20:31:53.441Z,54.80
2023-02-16T20:34:21.503Z,50.00
2023-02-16T20:36:48.088Z,49.37
2023-02-16T20:39:15.139Z,49.27
2023-02-16T20:41:41.701Z,50.03
2023-02-16T20:44:08.251Z,48.33
2023-02-16T20:46:34.723Z,46.73
2023-02-16T20:49:01.268Z,47.87
2023-02-16T20:51:27.948Z,46.13
2023-02-16T20:53:54.430Z,43.43
2023-02-16T20:56:23.483Z,45.30
2023-02-16T20:58:51.332Z,48.73
2023-02-16T21:01:20.774Z,52.13
2023-02-16T21:03:47.406Z,55.40
2023-02-16T21:06:15.043Z,56.83
2023-02-16T21:08:41.728Z,59.53
2023-02-16T21:11:08.333Z,60.73
2023-02-16T21:13:38.712Z,59.40
2023-02-16T21:16:06.144Z,62.77
2023-02-16T21:18:33.392Z,63.87
2023-02-16T21:21:01.031Z,62.57
2023-02-16T21:23:28.110Z,65.90
2023-02-16T21:26:03.269Z,65.53
2023-02-16T21:28:30.018Z,66.67
2023-02-16T21:30:56.797Z,66.33
2023-02-16T21:33:23.337Z,66.23
2023-02-16T21:35:49.837Z,60.93
2023-02-16T21:38:17.801Z,64.40
2023-02-16T21:41:02.856Z,65.27
2023-02-16T21:43:31.457Z,65.27
2023-02-16T21:45:59.884Z,60.23
2023-02-16T21:48:44.950Z,66.83
2023-02-16T21:51:15.424Z,63.17
2023-02-16T21:53:41.972Z,63.57
2023-02-16T21:56:26.855Z,60.60
2023-02-16T21:58:53.536Z,60.40
2023-02-16T22:01:22.079Z,58.20
2023-02-16T22:03:48.681Z,64.73
2023-02-16T22:06:15.593Z,65.93
2023-02-16T22:08:42.221Z,61.53
2023-02-16T22:11:11.474Z,59.57
2023-02-16T22:13:38.652Z,64.73
2023-02-16T22:16:10.250Z,61.67
2023-02-16T22:18:37.184Z,67.67
2023-02-16T22:21:04.987Z,63.77
2023-02-16T22:23:31.604Z,62.90
2023-02-16T22:25:59.506Z,61.50
2023-02-16T22:28:27.720Z,59.37
2023-02-16T22:30:58.114Z,66.63
2023-02-16T22:33:24.952Z,59.27
2023-02-16T22:35:51.461Z,58.47
2023-02-16T22:38:20.358Z,61.93
2023-02-16T22:40:48.716Z,67.23
2023-02-16T22:43:16.803Z,62.03
2023-02-16T22:45:43.576Z,58.17
2023-02-16T22:48:10.069Z,61.00
2023-02-16T22:50:36.534Z,64.53
2023-02-16T22:53:05.076Z,61.90
2023-02-16T22:55:31.545Z,64.73
2023-02-16T22:57:57.984Z,57.43
2023-02-16T23:00:24.543Z,58.93
2023-02-16T23:02:51.012Z,59.60
2023-02-16T23:05:17.632Z,58.83
2023-02-16T23:07:44.102Z,59.63
2023-02-16T23:10:10.778Z,62.23
2023-02-16T23:12:37.309Z,62.47
2023-02-16T23:15:04.032Z,64.10
2023-02-16T23:17:30.510Z,64.07
2023-02-16T23:19:57.030Z,59.93
2023-02-16T23:22:23.503Z,71.23
2023-02-16T23:25:09.979Z,72.57
2023-02-16T23:27:36.512Z,67.33
2023-02-16T23:30:03.629Z,67.53
2023-02-16T23:32:30.130Z,70.40
2023-02-16T23:34:56.656Z,69.70
2023-02-16T23:37:23.117Z,64.13
2023-02-16T23:39:49.617Z,64.83
2023-02-16T23:42:16.106Z,63.73
2023-02-16T23:44:42.603Z,62.70
2023-02-16T23:47:09.100Z,67.03
2023-02-16T23:49:35.644Z,63.57
2023-02-16T23:52:02.120Z,63.77
2023-02-16T23:54:28.645Z,62.77
2023-02-16T23:56:55.115Z,62.77
2023-02-16T23:59:21.658Z,61.73
